Terminal Aerodrome Forecast
Issued by NWS

Home | Current Version | Previous Version | Text Only | Print | Product List | Glossary Off
Versions: 1 2 3 4 5 6 7 8 9 10 11 12 13 14 15 16 17 18 19 20 21

000
FTUS42 KMHX 232300
TAFISO
TAF
KISO 232337Z 2400/2424 14010G15KT 6SM -RA SCT007 BKN015
     FM240300 16015G20KT 3SM SHRA BKN007
     FM240800 20010G15KT P6SM BKN007
     FM241300 20015G20KT P6SM SCT007 BKN025
      AMD LTD TO CLD VIS AND WIND=

USA.gov is the U.S. government's official web portal to all federal, state and local government web resources and services.